sensor_id;sensor_type;location;lat;lon;timestamp;pressure;altitude;pressure_sealevel;temperature;humidity
60437;BME280;46289;51.992;4.498;2023-06-05T00:01:39;102568.16;;;12.38;80.90
60437;BME280;46289;51.992;4.498;2023-06-05T00:03:46;102570.88;;;12.32;80.79
60437;BME280;46289;51.992;4.498;2023-06-05T00:05:52;102565.72;;;12.27;81.17
60437;BME280;46289;51.992;4.498;2023-06-05T00:07:57;102569.16;;;12.30;81.28
60437;BME280;46289;51.992;4.498;2023-06-05T00:10:03;102566.59;;;12.27;81.36
60437;BME280;46289;51.992;4.498;2023-06-05T00:12:08;102568.44;;;12.22;81.46
60437;BME280;46289;51.992;4.498;2023-06-05T00:14:13;102574.56;;;12.24;81.32
60437;BME280;46289;51.992;4.498;2023-06-05T00:16:21;102574.59;;;12.21;81.98
60437;BME280;46289;51.992;4.498;2023-06-05T00:18:26;102573.78;;;12.18;81.62
60437;BME280;46289;51.992;4.498;2023-06-05T00:20:34;102579.09;;;12.16;81.71
60437;BME280;46289;51.992;4.498;2023-06-05T00:22:39;102580.94;;;12.11;81.71
60437;BME280;46289;51.992;4.498;2023-06-05T00:24:46;102575.72;;;12.10;82.20
60437;BME280;46289;51.992;4.498;2023-06-05T00:26:53;102576.56;;;12.10;81.63
60437;BME280;46289;51.992;4.498;2023-06-05T00:28:58;102561.63;;;12.11;82.13
60437;BME280;46289;51.992;4.498;2023-06-05T00:31:03;102572.16;;;12.12;81.46
60437;BME280;46289;51.992;4.498;2023-06-05T00:33:08;102579.28;;;12.05;82.17
60437;BME280;46289;51.992;4.498;2023-06-05T00:35:14;102573.22;;;12.02;82.22
60437;BME280;46289;51.992;4.498;2023-06-05T00:37:24;102568.88;;;11.99;82.91
60437;BME280;46289;51.992;4.498;2023-06-05T00:39:29;102575.13;;;11.94;83.06
60437;BME280;46289;51.992;4.498;2023-06-05T00:41:35;102572.44;;;11.97;82.71
60437;BME280;46289;51.992;4.498;2023-06-05T00:43:44;102573.44;;;11.90;83.22
60437;BME280;46289;51.992;4.498;2023-06-05T00:45:51;102569.81;;;11.97;82.76
60437;BME280;46289;51.992;4.498;2023-06-05T00:48:01;102568.16;;;11.91;82.67
60437;BME280;46289;51.992;4.498;2023-06-05T00:50:07;102569.00;;;11.93;83.27
60437;BME280;46289;51.992;4.498;2023-06-05T00:52:15;102571.56;;;11.96;83.22
60437;BME280;46289;51.992;4.498;2023-06-05T00:54:24;102568.00;;;11.99;83.10
60437;BME280;46289;51.992;4.498;2023-06-05T00:56:29;102567.16;;;11.97;82.82
60437;BME280;46289;51.992;4.498;2023-06-05T00:58:37;102568.09;;;11.94;83.19
60437;BME280;46289;51.992;4.498;2023-06-05T01:00:43;102565.47;;;11.94;82.87
60437;BME280;46289;51.992;4.498;2023-06-05T01:02:51;102569.94;;;11.91;83.19
60437;BME280;46289;51.992;4.498;2023-06-05T01:04:59;102562.91;;;11.90;83.34
60437;BME280;46289;51.992;4.498;2023-06-05T01:07:05;102573.50;;;11.88;83.23
60437;BME280;46289;51.992;4.498;2023-06-05T01:09:11;102568.25;;;11.83;83.39
60437;BME280;46289;51.992;4.498;2023-06-05T01:11:23;102569.09;;;11.85;83.94
60437;BME280;46289;51.992;4.498;2023-06-05T01:13:31;102558.59;;;11.84;83.80
60437;BME280;46289;51.992;4.498;2023-06-05T01:15:39;102568.31;;;11.80;83.75
60437;BME280;46289;51.992;4.498;2023-06-05T01:17:45;102558.66;;;11.79;83.64
60437;BME280;46289;51.992;4.498;2023-06-05T01:19:50;102554.31;;;11.77;83.95
60437;BME280;46289;51.992;4.498;2023-06-05T01:21:56;102559.63;;;11.75;83.85
60437;BME280;46289;51.992;4.498;2023-06-05T01:24:05;102561.41;;;11.73;84.19
60437;BME280;46289;51.992;4.498;2023-06-05T01:26:15;102565.81;;;11.74;84.34
60437;BME280;46289;51.992;4.498;2023-06-05T01:28:26;102560.53;;;11.74;84.31
60437;BME280;46289;51.992;4.498;2023-06-05T01:30:36;102554.31;;;11.77;83.89
60437;BME280;46289;51.992;4.498;2023-06-05T01:32:47;102553.59;;;11.69;84.34
60437;BME280;46289;51.992;4.498;2023-06-05T01:34:55;102564.97;;;11.72;84.46
60437;BME280;46289;51.992;4.498;2023-06-05T01:37:02;102553.56;;;11.72;84.15
60437;BME280;46289;51.992;4.498;2023-06-05T01:39:13;102551.00;;;11.65;84.86
60437;BME280;46289;51.992;4.498;2023-06-05T01:41:21;102555.47;;;11.62;84.83
60437;BME280;46289;51.992;4.498;2023-06-05T01:43:29;102545.69;;;11.69;84.55
60437;BME280;46289;51.992;4.498;2023-06-05T01:45:36;102551.94;;;11.63;84.76
60437;BME280;46289;51.992;4.498;2023-06-05T01:47:42;102552.97;;;11.56;85.08
60437;BME280;46289;51.992;4.498;2023-06-05T01:49:50;102557.38;;;11.54;85.05
60437;BME280;46289;51.992;4.498;2023-06-05T01:51:55;102552.97;;;11.56;85.24
60437;BME280;46289;51.992;4.498;2023-06-05T01:54:03;102552.97;;;11.54;84.99
60437;BME280;46289;51.992;4.498;2023-06-05T01:56:11;102552.13;;;11.52;85.36
60437;BME280;46289;51.992;4.498;2023-06-05T01:58:21;102542.44;;;11.56;84.89
60437;BME280;46289;51.992;4.498;2023-06-05T02:00:27;102540.72;;;11.52;85.14
60437;BME280;46289;51.992;4.498;2023-06-05T02:02:32;102544.16;;;11.57;84.97
60437;BME280;46289;51.992;4.498;2023-06-05T02:04:37;102541.66;;;11.49;85.35
60437;BME280;46289;51.992;4.498;2023-06-05T02:06:43;102536.31;;;11.54;84.98
60437;BME280;46289;51.992;4.498;2023-06-05T02:08:50;102532.88;;;11.49;85.02
60437;BME280;46289;51.992;4.498;2023-06-05T02:10:55;102538.16;;;11.49;85.28
60437;BME280;46289;51.992;4.498;2023-06-05T02:13:08;102540.81;;;11.47;85.19
60437;BME280;46289;51.992;4.498;2023-06-05T02:15:13;102535.56;;;11.46;84.96
60437;BME280;46289;51.992;4.498;2023-06-05T02:17:19;102543.50;;;11.42;85.01
60437;BME280;46289;51.992;4.498;2023-06-05T02:19:29;102537.47;;;11.37;85.07
60437;BME280;46289;51.992;4.498;2023-06-05T02:21:34;102530.44;;;11.38;85.23
60437;BME280;46289;51.992;4.498;2023-06-05T02:23:39;102534.91;;;11.33;85.29
60437;BME280;46289;51.992;4.498;2023-06-05T02:25:45;102531.44;;;11.31;85.47
60437;BME280;46289;51.992;4.498;2023-06-05T02:27:52;102529.66;;;11.31;85.25
60437;BME280;46289;51.992;4.498;2023-06-05T02:30:00;102530.56;;;11.30;85.16
60437;BME280;46289;51.992;4.498;2023-06-05T02:32:05;102527.94;;;11.30;85.11
60437;BME280;46289;51.992;4.498;2023-06-05T02:34:10;102527.06;;;11.30;85.56
60437;BME280;46289;51.992;4.498;2023-06-05T02:36:16;102535.88;;;11.27;85.29
60437;BME280;46289;51.992;4.498;2023-06-05T02:38:21;102536.81;;;11.25;85.43
60437;BME280;46289;51.992;4.498;2023-06-05T02:40:26;102534.13;;;11.26;85.46
60437;BME280;46289;51.992;4.498;2023-06-05T02:42:31;102536.75;;;11.26;85.48
60437;BME280;46289;51.992;4.498;2023-06-05T02:44:39;102525.38;;;11.24;85.11
60437;BME280;46289;51.992;4.498;2023-06-05T02:46:46;102534.97;;;11.30;85.10
60437;BME280;46289;51.992;4.498;2023-06-05T02:48:51;102531.47;;;11.28;85.25
60437;BME280;46289;51.992;4.498;2023-06-05T02:50:58;102538.53;;;11.26;84.96
60437;BME280;46289;51.992;4.498;2023-06-05T02:53:03;102531.59;;;11.20;85.14
60437;BME280;46289;51.992;4.498;2023-06-05T02:55:08;102535.09;;;11.20;85.17
60437;BME280;46289;51.992;4.498;2023-06-05T02:57:13;102532.59;;;11.13;85.20
60437;BME280;46289;51.992;4.498;2023-06-05T02:59:22;102538.69;;;11.15;85.30
60437;BME280;46289;51.992;4.498;2023-06-05T03:01:27;102530.00;;;11.11;85.33
60437;BME280;46289;51.992;4.498;2023-06-05T03:03:39;102517.72;;;11.10;85.11
60437;BME280;46289;51.992;4.498;2023-06-05T03:05:44;102524.84;;;11.04;85.58
60437;BME280;46289;51.992;4.498;2023-06-05T03:07:51;102521.38;;;11.02;85.14
60437;BME280;46289;51.992;4.498;2023-06-05T03:10:00;102520.47;;;11.03;85.49
60437;BME280;46289;51.992;4.498;2023-06-05T03:12:05;102519.59;;;11.02;85.27
60437;BME280;46289;51.992;4.498;2023-06-05T03:14:10;102520.47;;;11.03;85.25
60437;BME280;46289;51.992;4.498;2023-06-05T03:16:15;102510.00;;;10.99;85.25
60437;BME280;46289;51.992;4.498;2023-06-05T03:18:20;102514.38;;;11.01;85.15
60437;BME280;46289;51.992;4.498;2023-06-05T03:20:31;102514.38;;;11.01;84.98
60437;BME280;46289;51.992;4.498;2023-06-05T03:22:36;102513.59;;;10.95;85.23
60437;BME280;46289;51.992;4.498;2023-06-05T03:24:41;102508.34;;;10.94;85.18
60437;BME280;46289;51.992;4.498;2023-06-05T03:26:46;102508.38;;;10.91;85.12
60437;BME280;46289;51.992;4.498;2023-06-05T03:28:55;102516.28;;;10.89;85.00
60437;BME280;46289;51.992;4.498;2023-06-05T03:31:00;102504.91;;;10.87;85.39
60437;BME280;46289;51.992;4.498;2023-06-05T03:33:05;102521.59;;;10.86;85.10
60437;BME280;46289;51.992;4.498;2023-06-05T03:35:11;102512.78;;;10.89;85.45
60437;BME280;46289;51.992;4.498;2023-06-05T03:37:20;102514.56;;;10.87;85.21
60437;BME280;46289;51.992;4.498;2023-06-05T03:39:25;102511.06;;;10.86;85.28
60437;BME280;46289;51.992;4.498;2023-06-05T03:41:32;102512.81;;;10.87;85.20
60437;BME280;46289;51.992;4.498;2023-06-05T03:43:37;102516.31;;;10.88;85.24
60437;BME280;46289;51.992;4.498;2023-06-05T03:45:42;102511.94;;;10.88;84.86
60437;BME280;46289;51.992;4.498;2023-06-05T03:47:47;102512.84;;;10.86;84.88
60437;BME280;46289;51.992;4.498;2023-06-05T03:49:52;102500.59;;;10.83;84.74
60437;BME280;46289;51.992;4.498;2023-06-05T03:51:57;102510.25;;;10.83;84.60
60437;BME280;46289;51.992;4.498;2023-06-05T03:54:07;102514.63;;;10.84;84.66
60437;BME280;46289;51.992;4.498;2023-06-05T03:56:12;102514.66;;;10.81;85.05
60437;BME280;46289;51.992;4.498;2023-06-05T03:58:20;102518.09;;;10.84;84.56
60437;BME280;46289;51.992;4.498;2023-06-05T04:00:30;102519.81;;;10.88;84.60
60437;BME280;46289;51.992;4.498;2023-06-05T04:02:35;102518.91;;;10.89;84.40
60437;BME280;46289;51.992;4.498;2023-06-05T04:04:40;102521.53;;;10.89;84.09
60437;BME280;46289;51.992;4.498;2023-06-05T04:06:45;102518.00;;;10.93;84.07
60437;BME280;46289;51.992;4.498;2023-06-05T04:08:53;102518.84;;;10.92;83.83
60437;BME280;46289;51.992;4.498;2023-06-05T04:11:00;102520.56;;;10.95;84.15
60437;BME280;46289;51.992;4.498;2023-06-05T04:13:05;102521.41;;;10.98;83.74
60437;BME280;46289;51.992;4.498;2023-06-05T04:15:13;102524.97;;;10.96;83.87
60437;BME280;46289;51.992;4.498;2023-06-05T04:17:18;102518.75;;;11.02;83.80
60437;BME280;46289;51.992;4.498;2023-06-05T04:19:23;102528.41;;;11.01;83.61
60437;BME280;46289;51.992;4.498;2023-06-05T04:21:31;102523.16;;;10.99;83.47
60437;BME280;46289;51.992;4.498;2023-06-05T04:23:37;102525.78;;;10.99;83.64
60437;BME280;46289;51.992;4.498;2023-06-05T04:25:42;102524.88;;;11.02;83.93
60437;BME280;46289;51.992;4.498;2023-06-05T04:27:50;102523.03;;;11.06;83.32
60437;BME280;46289;51.992;4.498;2023-06-05T04:29:56;102520.34;;;11.12;83.18
60437;BME280;46289;51.992;4.498;2023-06-05T04:32:02;102528.16;;;11.16;83.42
60437;BME280;46289;51.992;4.498;2023-06-05T04:34:09;102527.13;;;11.25;83.00
60437;BME280;46289;51.992;4.498;2023-06-05T04:36:15;102524.50;;;11.25;82.79
60437;BME280;46289;51.992;4.498;2023-06-05T04:38:23;102520.97;;;11.28;82.83
60437;BME280;46289;51.992;4.498;2023-06-05T04:40:29;102523.47;;;11.35;82.42
60437;BME280;46289;51.992;4.498;2023-06-05T04:42:36;102528.63;;;11.41;82.36
60437;BME280;46289;51.992;4.498;2023-06-05T04:44:44;102535.53;;;11.47;82.29
60437;BME280;46289;51.992;4.498;2023-06-05T04:46:51;102526.63;;;11.56;82.26
60437;BME280;46289;51.992;4.498;2023-06-05T04:48:56;102537.91;;;11.61;81.86
60437;BME280;46289;51.992;4.498;2023-06-05T04:51:03;102532.53;;;11.69;81.92
60437;BME280;46289;51.992;4.498;2023-06-05T04:53:10;102543.72;;;11.81;81.49
60437;BME280;46289;51.992;4.498;2023-06-05T04:55:15;102533.22;;;11.78;80.84
60437;BME280;46289;51.992;4.498;2023-06-05T04:57:25;102543.53;;;11.92;81.00
60437;BME280;46289;51.992;4.498;2023-06-05T04:59:31;102536.47;;;11.94;80.98
60437;BME280;46289;51.992;4.498;2023-06-05T05:01:39;102539.69;;;12.10;80.75
60437;BME280;46289;51.992;4.498;2023-06-05T05:03:46;102548.22;;;12.23;80.52
60437;BME280;46289;51.992;4.498;2023-06-05T05:05:53;102547.22;;;12.28;79.65
60437;BME280;46289;51.992;4.498;2023-06-05T05:08:01;102540.81;;;12.42;79.76
60437;BME280;46289;51.992;4.498;2023-06-05T05:10:08;102540.47;;;12.57;79.16
60437;BME280;46289;51.992;4.498;2023-06-05T05:12:13;102542.94;;;12.65;78.58
60437;BME280;46289;51.992;4.498;2023-06-05T05:14:21;102546.13;;;12.81;78.22
60437;BME280;46289;51.992;4.498;2023-06-05T05:16:26;102541.44;;;12.93;77.58
60437;BME280;46289;51.992;4.498;2023-06-05T05:18:44;102535.66;;;13.13;77.45
60437;BME280;46289;51.992;4.498;2023-06-05T05:20:51;102532.75;;;13.27;77.01
60437;BME280;46289;51.992;4.498;2023-06-05T05:22:56;102531.84;;;13.27;76.14
60437;BME280;46289;51.992;4.498;2023-06-05T05:25:01;102529.25;;;13.25;76.55
60437;BME280;46289;51.992;4.498;2023-06-05T05:27:07;102533.28;;;13.40;76.01
60437;BME280;46289;51.992;4.498;2023-06-05T05:29:15;102533.06;;;13.49;75.57
60437;BME280;46289;51.992;4.498;2023-06-05T05:31:19;102542.97;;;13.74;75.31
60437;BME280;46289;51.992;4.498;2023-06-05T05:33:25;102543.44;;;13.90;74.56
60437;BME280;46289;51.992;4.498;2023-06-05T05:35:32;102541.59;;;13.93;74.64
60437;BME280;46289;51.992;4.498;2023-06-05T05:37:37;102534.31;;;14.01;73.70
60437;BME280;46289;51.992;4.498;2023-06-05T05:39:42;102535.66;;;14.16;73.71
60437;BME280;46289;51.992;4.498;2023-06-05T05:41:47;102541.53;;;14.26;73.38
60437;BME280;46289;51.992;4.498;2023-06-05T05:43:52;102534.69;;;14.19;72.70
60437;BME280;46289;51.992;4.498;2023-06-05T05:45:57;102535.28;;;13.99;72.92
60437;BME280;46289;51.992;4.498;2023-06-05T05:48:04;102525.75;;;13.93;72.89
60437;BME280;46289;51.992;4.498;2023-06-05T05:50:09;102528.47;;;13.90;73.21
60437;BME280;46289;51.992;4.498;2023-06-05T05:52:19;102532.03;;;14.19;72.89
60437;BME280;46289;51.992;4.498;2023-06-05T05:54:24;102532.13;;;14.16;72.81
60437;BME280;46289;51.992;4.498;2023-06-05T05:56:30;102538.59;;;14.05;72.69
60437;BME280;46289;51.992;4.498;2023-06-05T05:58:37;102529.16;;;13.97;73.19
60437;BME280;46289;51.992;4.498;2023-06-05T06:00:44;102530.00;;;13.97;73.23
60437;BME280;46289;51.992;4.498;2023-06-05T06:02:51;102536.44;;;13.87;73.77
60437;BME280;46289;51.992;4.498;2023-06-05T06:04:57;102532.63;;;14.30;73.00
60437;BME280;46289;51.992;4.498;2023-06-05T06:07:06;102537.28;;;14.52;72.23
60437;BME280;46289;51.992;4.498;2023-06-05T06:09:14;102530.44;;;14.74;71.45
60437;BME280;46289;51.992;4.498;2023-06-05T06:11:20;102545.13;;;14.84;70.97
60437;BME280;46289;51.992;4.498;2023-06-05T06:13:25;102541.84;;;14.76;70.34
60437;BME280;46289;51.992;4.498;2023-06-05T06:15:32;102535.47;;;14.83;70.00
60437;BME280;46289;51.992;4.498;2023-06-05T06:17:39;102547.09;;;14.78;70.60
60437;BME280;46289;51.992;4.498;2023-06-05T06:19:44;102530.59;;;14.98;69.36
60437;BME280;46289;51.992;4.498;2023-06-05T06:21:50;102537.75;;;15.49;69.03
60437;BME280;46289;51.992;4.498;2023-06-05T06:23:56;102531.91;;;15.91;68.30
60437;BME280;46289;51.992;4.498;2023-06-05T06:26:05;102534.00;;;16.30;66.41
60437;BME280;46289;51.992;4.498;2023-06-05T06:28:12;102534.22;;;16.47;64.69
60437;BME280;46289;51.992;4.498;2023-06-05T06:30:21;102542.28;;;16.67;65.02
60437;BME280;46289;51.992;4.498;2023-06-05T06:32:26;102543.69;;;16.78;63.04
60437;BME280;46289;51.992;4.498;2023-06-05T06:34:31;102537.09;;;16.88;62.14
60437;BME280;46289;51.992;4.498;2023-06-05T06:36:37;102537.53;;;16.99;62.50
60437;BME280;46289;51.992;4.498;2023-06-05T06:38:42;102538.88;;;16.87;62.47
60437;BME280;46289;51.992;4.498;2023-06-05T06:40:47;102533.41;;;17.34;61.47
60437;BME280;46289;51.992;4.498;2023-06-05T06:42:55;102540.34;;;17.39;61.86
60437;BME280;46289;51.992;4.498;2023-06-05T06:45:02;102535.38;;;17.51;61.68
60437;BME280;46289;51.992;4.498;2023-06-05T06:47:08;102537.47;;;17.86;61.34
60437;BME280;46289;51.992;4.498;2023-06-05T06:49:15;102540.13;;;17.64;60.73
60437;BME280;46289;51.992;4.498;2023-06-05T06:51:20;102539.97;;;17.26;60.98
60437;BME280;46289;51.992;4.498;2023-06-05T06:53:26;102536.22;;;16.87;61.76
60437;BME280;46289;51.992;4.498;2023-06-05T06:55:31;102549.16;;;16.50;62.53
60437;BME280;46289;51.992;4.498;2023-06-05T06:57:38;102546.75;;;16.67;62.38
60437;BME280;46289;51.992;4.498;2023-06-05T06:59:46;102542.44;;;17.08;61.13
60437;BME280;46289;51.992;4.498;2023-06-05T07:02:09;102536.91;;;17.35;60.54
60437;BME280;46289;51.992;4.498;2023-06-05T07:04:16;102540.72;;;17.50;59.29
60437;BME280;46289;51.992;4.498;2023-06-05T07:06:22;102540.84;;;17.26;59.11
60437;BME280;46289;51.992;4.498;2023-06-05T07:08:27;102543.44;;;17.28;60.07
60437;BME280;46289;51.992;4.498;2023-06-05T07:10:32;102543.94;;;17.16;59.83
60437;BME280;46289;51.992;4.498;2023-06-05T07:12:37;102546.38;;;17.42;59.78
60437;BME280;46289;51.992;4.498;2023-06-05T07:14:42;102548.06;;;17.65;59.64
60437;BME280;46289;51.992;4.498;2023-06-05T07:16:50;102546.88;;;17.72;58.99
60437;BME280;46289;51.992;4.498;2023-06-05T07:18:59;102551.81;;;17.82;58.16
60437;BME280;46289;51.992;4.498;2023-06-05T07:21:05;102559.06;;;17.98;58.59
60437;BME280;46289;51.992;4.498;2023-06-05T07:23:12;102546.13;;;18.49;57.32
60437;BME280;46289;51.992;4.498;2023-06-05T07:25:22;102538.56;;;18.59;56.38
60437;BME280;46289;51.992;4.498;2023-06-05T07:27:29;102545.38;;;18.46;56.63
60437;BME280;46289;51.992;4.498;2023-06-05T07:29:34;102540.63;;;18.90;55.97
60437;BME280;46289;51.992;4.498;2023-06-05T07:31:40;102546.81;;;18.72;55.90
60437;BME280;46289;51.992;4.498;2023-06-05T07:33:47;102542.16;;;18.77;55.02
60437;BME280;46289;51.992;4.498;2023-06-05T07:35:52;102540.84;;;19.04;54.50
60437;BME280;46289;51.992;4.498;2023-06-05T07:38:00;102538.34;;;19.19;54.02
60437;BME280;46289;51.992;4.498;2023-06-05T07:40:06;102542.84;;;19.36;53.76
60437;BME280;46289;51.992;4.498;2023-06-05T07:42:12;102540.84;;;19.22;53.29
60437;BME280;46289;51.992;4.498;2023-06-05T07:44:23;102549.38;;;18.75;54.15
60437;BME280;46289;51.992;4.498;2023-06-05T07:46:29;102552.59;;;18.43;54.75
60437;BME280;46289;51.992;4.498;2023-06-05T07:48:34;102543.16;;;18.55;54.86
60437;BME280;46289;51.992;4.498;2023-06-05T07:50:42;102547.84;;;18.88;54.95
60437;BME280;46289;51.992;4.498;2023-06-05T07:52:47;102534.13;;;19.32;54.29
60437;BME280;46289;51.992;4.498;2023-06-05T07:54:52;102539.53;;;19.30;54.04
60437;BME280;46289;51.992;4.498;2023-06-05T07:57:01;102546.34;;;19.19;53.81
60437;BME280;46289;51.992;4.498;2023-06-05T07:59:07;102538.44;;;19.17;53.67
60437;BME280;46289;51.992;4.498;2023-06-05T08:01:16;102535.94;;;19.49;53.25
60437;BME280;46289;51.992;4.498;2023-06-05T08:03:23;102542.69;;;19.39;52.93
60437;BME280;46289;51.992;4.498;2023-06-05T08:05:28;102536.84;;;19.67;52.70
60437;BME280;46289;51.992;4.498;2023-06-05T08:07:38;102541.78;;;20.08;52.04
60437;BME280;46289;51.992;4.498;2023-06-05T08:09:43;102539.69;;;19.80;51.41
60437;BME280;46289;51.992;4.498;2023-06-05T08:11:48;102543.31;;;19.96;51.67
60437;BME280;46289;51.992;4.498;2023-06-05T08:13:53;102545.88;;;19.98;51.69
60437;BME280;46289;51.992;4.498;2023-06-05T08:15:58;102534.78;;;20.23;50.19
60437;BME280;46289;51.992;4.498;2023-06-05T08:18:03;102539.59;;;19.64;51.18
60437;BME280;46289;51.992;4.498;2023-06-05T08:20:09;102541.09;;;20.04;50.61
60437;BME280;46289;51.992;4.498;2023-06-05T08:22:15;102543.44;;;19.93;50.75
60437;BME280;46289;51.992;4.498;2023-06-05T08:24:23;102533.88;;;20.55;49.96
60437;BME280;46289;51.992;4.498;2023-06-05T08:26:31;102534.72;;;20.72;48.94
60437;BME280;46289;51.992;4.498;2023-06-05T08:28:40;102540.94;;;20.07;49.46
60437;BME280;46289;51.992;4.498;2023-06-05T08:30:45;102533.66;;;19.93;49.94
60437;BME280;46289;51.992;4.498;2023-06-05T08:32:50;102528.50;;;20.06;49.72
60437;BME280;46289;51.992;4.498;2023-06-05T08:34:55;102531.47;;;20.17;49.18
60437;BME280;46289;51.992;4.498;2023-06-05T08:37:00;102534.00;;;20.36;49.30
60437;BME280;46289;51.992;4.498;2023-06-05T08:39:05;102532.75;;;20.91;48.59
60437;BME280;46289;51.992;4.498;2023-06-05T08:41:14;102530.88;;;20.93;47.61
60437;BME280;46289;51.992;4.498;2023-06-05T08:43:19;102518.63;;;20.89;47.84
60437;BME280;46289;51.992;4.498;2023-06-05T08:45:25;102516.91;;;20.56;48.31
60437;BME280;46289;51.992;4.498;2023-06-05T08:47:29;102529.56;;;20.85;47.38
60437;BME280;46289;51.992;4.498;2023-06-05T08:49:37;102523.53;;;21.27;46.95
60437;BME280;46289;51.992;4.498;2023-06-05T08:51:45;102521.19;;;21.07;48.25
60437;BME280;46289;51.992;4.498;2023-06-05T08:54:02;102522.94;;;20.76;48.14
60437;BME280;46289;51.992;4.498;2023-06-05T08:56:17;102522.81;;;21.09;47.46
60437;BME280;46289;51.992;4.498;2023-06-05T08:58:22;102522.22;;;21.34;46.81
60437;BME280;46289;51.992;4.498;2023-06-05T09:00:31;102526.84;;;21.16;47.02
60437;BME280;46289;51.992;4.498;2023-06-05T09:02:38;102517.38;;;21.11;47.08
60437;BME280;46289;51.992;4.498;2023-06-05T09:04:45;102520.41;;;21.35;47.18
60437;BME280;46289;51.992;4.498;2023-06-05T09:06:53;102524.41;;;21.27;46.82
60437;BME280;46289;51.992;4.498;2023-06-05T09:09:01;102519.06;;;21.58;46.48
60437;BME280;46289;51.992;4.498;2023-06-05T09:11:27;102511.25;;;21.69;46.37
60437;BME280;46289;51.992;4.498;2023-06-05T09:13:47;102515.84;;;21.81;45.30
60437;BME280;46289;51.992;4.498;2023-06-05T09:15:52;102513.75;;;21.86;45.48
60437;BME280;46289;51.992;4.498;2023-06-05T09:18:07;102510.38;;;21.54;46.42
60437;BME280;46289;51.992;4.498;2023-06-05T09:20:22;102512.78;;;21.73;45.59
60437;BME280;46289;51.992;4.498;2023-06-05T09:22:36;102518.34;;;21.84;44.98
60437;BME280;46289;51.992;4.498;2023-06-05T09:24:58;102517.19;;;22.03;44.61
60437;BME280;46289;51.992;4.498;2023-06-05T09:27:08;102512.34;;;22.38;44.42
60437;BME280;46289;51.992;4.498;2023-06-05T09:29:19;102519.88;;;22.03;44.18
60437;BME280;46289;51.992;4.498;2023-06-05T09:31:25;102512.41;;;22.08;43.64
60437;BME280;46289;51.992;4.498;2023-06-05T09:33:31;102513.00;;;22.13;43.34
60437;BME280;46289;51.992;4.498;2023-06-05T09:35:37;102511.56;;;22.07;43.91
60437;BME280;46289;51.992;4.498;2023-06-05T09:37:43;102511.25;;;22.41;43.69
60437;BME280;46289;51.992;4.498;2023-06-05T09:39:49;102505.34;;;22.07;43.48
60437;BME280;46289;51.992;4.498;2023-06-05T09:41:55;102503.97;;;21.57;44.32
60437;BME280;46289;51.992;4.498;2023-06-05T09:44:06;102506.94;;;21.52;44.37
60437;BME280;46289;51.992;4.498;2023-06-05T09:46:12;102501.78;;;22.35;44.42
60437;BME280;46289;51.992;4.498;2023-06-05T09:48:19;102501.09;;;22.60;41.74
60437;BME280;46289;51.992;4.498;2023-06-05T09:50:24;102509.94;;;22.33;42.51
60437;BME280;46289;51.992;4.498;2023-06-05T09:52:31;102498.81;;;22.40;42.82
60437;BME280;46289;51.992;4.498;2023-06-05T09:54:40;102502.69;;;22.35;43.20
60437;BME280;46289;51.992;4.498;2023-06-05T09:56:48;102502.00;;;22.73;42.09
60437;BME280;46289;51.992;4.498;2023-06-05T09:58:53;102510.28;;;22.97;41.52
60437;BME280;46289;51.992;4.498;2023-06-05T10:01:01;102507.22;;;23.16;41.54
60437;BME280;46289;51.992;4.498;2023-06-05T10:03:14;102504.22;;;22.94;40.09
60437;BME280;46289;51.992;4.498;2023-06-05T10:05:20;102503.25;;;23.22;40.96
60437;BME280;46289;51.992;4.498;2023-06-05T10:07:25;102501.25;;;23.51;40.76
60437;BME280;46289;51.992;4.498;2023-06-05T10:09:31;102492.13;;;23.54;41.01
60437;BME280;46289;51.992;4.498;2023-06-05T10:11:36;102489.50;;;23.92;38.92
60437;BME280;46289;51.992;4.498;2023-06-05T10:13:43;102492.38;;;23.63;39.21
60437;BME280;46289;51.992;4.498;2023-06-05T10:15:54;102491.06;;;23.43;39.76
60437;BME280;46289;51.992;4.498;2023-06-05T10:18:04;102494.38;;;23.34;40.76
60437;BME280;46289;51.992;4.498;2023-06-05T10:20:10;102486.88;;;23.52;39.98
60437;BME280;46289;51.992;4.498;2023-06-05T10:22:22;102483.78;;;23.71;39.95
60437;BME280;46289;51.992;4.498;2023-06-05T10:24:33;102484.94;;;23.67;39.36
60437;BME280;46289;51.992;4.498;2023-06-05T10:26:55;102482.19;;;24.07;39.50
60437;BME280;46289;51.992;4.498;2023-06-05T10:29:19;102475.31;;;23.90;39.23
60437;BME280;46289;51.992;4.498;2023-06-05T10:31:37;102482.06;;;23.57;39.08
60437;BME280;46289;51.992;4.498;2023-06-05T10:33:58;102472.53;;;23.79;39.49
60437;BME280;46289;51.992;4.498;2023-06-05T10:36:21;102462.97;;;24.37;39.17
60437;BME280;46289;51.992;4.498;2023-06-05T10:38:30;102474.03;;;24.32;38.22
60437;BME280;46289;51.992;4.498;2023-06-05T10:40:37;102471.81;;;24.14;38.21
60437;BME280;46289;51.992;4.498;2023-06-05T10:42:44;102482.34;;;22.60;40.28
60437;BME280;46289;51.992;4.498;2023-06-05T10:44:50;102478.38;;;22.93;40.65
60437;BME280;46289;51.992;4.498;2023-06-05T10:46:55;102480.47;;;22.33;41.90
60437;BME280;46289;51.992;4.498;2023-06-05T10:49:09;102475.38;;;22.43;42.18
60437;BME280;46289;51.992;4.498;2023-06-05T10:51:31;102475.66;;;23.07;41.01
60437;BME280;46289;51.992;4.498;2023-06-05T10:53:44;102468.72;;;23.17;40.27
60437;BME280;46289;51.992;4.498;2023-06-05T10:55:52;102464.25;;;23.82;39.95
60437;BME280;46289;51.992;4.498;2023-06-05T10:58:11;102470.03;;;23.50;39.99
60437;BME280;46289;51.992;4.498;2023-06-05T11:00:17;102465.31;;;23.92;38.38
60437;BME280;46289;51.992;4.498;2023-06-05T11:02:23;102462.75;;;24.27;38.57
60437;BME280;46289;51.992;4.498;2023-06-05T11:07:26;102456.47;;;24.16;38.51
60437;BME280;46289;51.992;4.498;2023-06-05T11:09:32;102460.53;;;24.82;38.83